FLTA4: Red River, Fulton, AR

Data processed at Thu Jan 04 2018 11:22


All information presented herein is the property of the government of the United States of America and may be revised or deleted at any time without prior notice.
Dissemination of this information without the expressed written consent of the Public Affairs Office, Tulsa District U.S. Army Corps of Engineers is strictly prohibited.
These data are gathered electronically and, as presented, have not undergone any form of quality control. These data are not guaranteed to be valid or correct.
Go to home page.
Go to station list.

Upstream stations:


Previous Day
Next Day
Current Day
    
SHEF ID:       FLTA4     Red River nr Fulton
STATION TYPE:  

               PRECIP     STAGE  RIV-FLOW   VOLTAGE
                   in        ft       cfs      volt
              Ccp-Rev   Ccp-Rev   Ccp-Rev   Ccp-Rev
(US/Central)
01/02 00:00      0.00      0.24      4536     12.70
01/02 01:00      0.00      0.24      4536     12.68
01/02 02:00      0.00      0.23      4513     12.67
01/02 03:00      0.00      0.23      4513     12.66
01/02 04:00      0.00      0.23      4513     12.65
01/02 05:00      0.00      0.22      4490     12.63
01/02 06:00      0.00      0.22      4490     12.63
01/02 07:00      0.00      0.22      4490     12.75
01/02 08:00      0.00      0.21      4467     13.04
01/02 09:00      0.00      0.21      4467     13.31
01/02 10:00      0.00      0.21      4467     13.62
01/02 11:00      0.00      0.16      4351     13.92
01/02 12:00      0.00      0.10      4213     13.57
01/02 13:00      0.00      0.04      4075     13.27
01/02 14:00      0.00     -0.03      3945     13.13
01/02 15:00      0.00     -0.09      3869     12.95
01/02 16:00      0.00     -0.13      3819     12.83
01/02 17:00      0.00     -0.17      3769     12.79
01/02 18:00      0.00     -0.21      3718     12.76
01/02 19:00      0.00     -0.24      3681     12.74
01/02 20:00      0.00     -0.26      3655     12.72
01/02 21:00      0.00     -0.28      3630     12.70
01/02 22:00      0.00     -0.30      3605     12.68
01/02 23:00      0.00     -0.31      3593     12.67